Time;durP1;ratioP1;P1;durP2;ratioP2;P2;SDS_P1;SDS_P2;PMS_P1;PMS_P2;Temp;Humidity;BMP_temperature;BMP_pressure;BME280_temperature;BME280_humidity;BME280_pressure;Samples;Min_cycle;Max_cycle;Signal;HPM_P1;HPM_P2
2022/08/03 00:00:57;;;;;;;34.45;32.67;;;;;;;;;;5050844;28;20033;-56
2022/08/03 00:03:23;;;;;;;29.92;28.33;;;;;;;;;;5045800;28;20099;-56
2022/08/03 00:05:48;;;;;;;33.53;31.80;;;;;;;;;;5045019;28;20035;-57
2022/08/03 00:08:13;;;;;;;38.40;36.40;;;;;;;;;;5049299;28;20104;-56
2022/08/03 00:10:39;;;;;;;24.95;23.63;;;;;;;;;;5047062;28;20040;-56
2022/08/03 00:13:04;;;;;;;28.80;27.30;;;;;;;;;;5041412;28;20540;-57
2022/08/03 00:15:29;;;;;;;29.60;28.02;;;;;;;;;;5046788;28;20442;-56
2022/08/03 00:17:55;;;;;;;21.27;20.08;;;;;;;;;;5042992;28;20052;-57
2022/08/03 00:20:21;;;;;;;23.45;22.20;;;;;;;;;;5042168;28;20354;-56
2022/08/03 00:22:46;;;;;;;22.55;21.35;;;;;;;;;;5040885;28;20041;-57
2022/08/03 00:25:12;;;;;;;24.70;23.40;;;;;;;;;;5041144;28;20036;-57
2022/08/03 00:27:37;;;;;;;28.70;27.20;;;;;;;;;;5045747;28;20442;-57
2022/08/03 00:30:03;;;;;;;20.70;19.60;;;;;;;;;;5043449;28;20040;-57
2022/08/03 00:32:29;;;;;;;24.17;22.88;;;;;;;;;;5048212;28;20025;-58
2022/08/03 00:34:54;;;;;;;26.33;24.88;;;;;;;;;;5042603;28;20032;-58
2022/08/03 00:37:19;;;;;;;19.15;18.13;;;;;;;;;;5045955;28;20041;-59
2022/08/03 00:39:46;;;;;;;26.08;24.67;;;;;;;;;;5043410;28;20028;-58
2022/08/03 00:42:11;;;;;;;16.75;15.82;;;;;;;;;;5048993;28;20354;-58
2022/08/03 00:44:41;;;;;;;24.45;23.10;;;;;;;;;;5050030;28;20533;-58
2022/08/03 00:47:07;;;;;;;19.17;18.15;;;;;;;;;;5042603;28;20060;-58
2022/08/03 00:49:32;;;;;;;13.70;12.90;;;;;;;;;;5043038;28;20037;-59
2022/08/03 00:51:59;;;;;;;15.15;14.25;;;;;;;;;;5040254;28;20044;-59
2022/08/03 00:54:25;;;;;;;21.33;20.13;;;;;;;;;;5037930;28;20025;-58
2022/08/03 00:56:50;;;;;;;21.48;20.33;;;;;;;;;;5040199;28;20383;-58
2022/08/03 00:59:17;;;;;;;19.83;18.73;;;;;;;;;;5044420;28;20162;-58
2022/08/03 01:01:42;;;;;;;21.00;19.83;;;;;;;;;;5045486;28;20017;-58
2022/08/03 01:04:07;;;;;;;23.08;21.85;;;;;;;;;;5041974;28;20465;-58
2022/08/03 01:06:36;;;;;;;20.30;19.20;;;;;;;;;;5042801;28;20652;-58
2022/08/03 01:09:37;;;;;;;19.08;18.02;;;;;;;;;;5044057;28;20143;-58
2022/08/03 01:12:09;;;;;;;17.75;16.75;;;;;;;;;;5041019;28;20116;-58
2022/08/03 01:14:44;;;;;;;17.10;16.10;;;;;;;;;;5040991;28;20029;-58
2022/08/03 01:17:13;;;;;;;13.00;12.23;;;;;;;;;;5046543;28;20021;-58
2022/08/03 01:20:03;;;;;;;12.10;11.35;;;;;;;;;;5042314;28;20033;-58
2022/08/03 01:22:57;;;;;;;10.37;9.73;;;;;;;;;;5042680;28;20524;-58
2022/08/03 01:25:35;;;;;;;10.90;10.20;;;;;;;;;;5042088;28;20374;-58
2022/08/03 01:28:26;;;;;;;10.60;9.95;;;;;;;;;;5042238;28;20083;-58
2022/08/03 01:30:56;;;;;;;11.23;10.52;;;;;;;;;;5041869;28;20491;-58
2022/08/03 01:33:34;;;;;;;10.60;9.93;;;;;;;;;;5042305;28;20307;-58
2022/08/03 01:36:03;;;;;;;12.43;11.63;;;;;;;;;;5039974;28;20021;-58
2022/08/03 01:38:34;;;;;;;14.57;13.77;;;;;;;;;;5042900;28;20344;-58
2022/08/03 01:41:06;;;;;;;13.05;12.27;;;;;;;;;;5044413;28;20055;-58
2022/08/03 01:43:32;;;;;;;14.68;13.80;;;;;;;;;;5046822;28;20036;-58
2022/08/03 01:45:58;;;;;;;13.65;12.68;;;;;;;;;;5046831;28;20028;-58
2022/08/03 01:48:24;;;;;;;14.23;13.40;;;;;;;;;;5044363;28;20060;-58
2022/08/03 01:50:50;;;;;;;12.05;11.35;;;;;;;;;;5043530;28;20032;-58
2022/08/03 01:53:17;;;;;;;13.88;13.07;;;;;;;;;;5044506;28;20037;-58
2022/08/03 01:55:48;;;;;;;15.98;15.02;;;;;;;;;;5042601;28;20064;-58
2022/08/03 01:58:16;;;;;;;18.35;17.35;;;;;;;;;;5043717;28;20043;-58
2022/08/03 02:00:42;;;;;;;15.52;14.63;;;;;;;;;;5045551;28;20059;-57
2022/08/03 02:03:12;;;;;;;18.70;17.67;;;;;;;;;;5043520;28;20514;-57
2022/08/03 02:05:38;;;;;;;20.75;19.63;;;;;;;;;;5041685;28;20427;-58
2022/08/03 02:08:06;;;;;;;17.48;16.48;;;;;;;;;;5045378;28;20132;-58
2022/08/03 02:10:33;;;;;;;23.60;22.30;;;;;;;;;;5041565;28;20037;-58
2022/08/03 02:13:00;;;;;;;32.42;30.77;;;;;;;;;;5040695;28;20063;-58
2022/08/03 02:15:28;;;;;;;34.55;32.78;;;;;;;;;;5040449;28;20040;-58
2022/08/03 02:17:56;;;;;;;35.28;33.47;;;;;;;;;;5046662;28;20919;-58
2022/08/03 02:20:21;;;;;;;37.38;35.47;;;;;;;;;;5033585;28;20647;-58
2022/08/03 02:22:47;;;;;;;37.92;35.80;;;;;;;;;;5043909;28;20033;-58
2022/08/03 02:25:14;;;;;;;30.88;29.27;;;;;;;;;;5040969;28;20612;-58
2022/08/03 02:27:51;;;;;;;40.80;38.67;;;;;;;;;;5049243;28;20416;-58
2022/08/03 02:30:19;;;;;;;36.30;34.25;;;;;;;;;;5047720;28;20032;-58
2022/08/03 02:32:50;;;;;;;42.00;39.70;;;;;;;;;;5046571;28;20127;-58
2022/08/03 02:35:19;;;;;;;43.75;41.50;;;;;;;;;;5046220;28;20432;-58
2022/08/03 02:37:51;;;;;;;39.03;37.03;;;;;;;;;;5048199;28;20112;-58
2022/08/03 02:40:19;;;;;;;41.38;39.25;;;;;;;;;;5036617;28;20041;-58
2022/08/03 02:42:46;;;;;;;37.40;35.42;;;;;;;;;;5050400;28;20033;-58
2022/08/03 02:45:13;;;;;;;42.08;39.92;;;;;;;;;;5051040;28;20021;-58
2022/08/03 02:47:40;;;;;;;37.47;35.42;;;;;;;;;;5048686;28;20033;-58
2022/08/03 02:50:09;;;;;;;38.50;36.53;;;;;;;;;;5045709;28;20027;-58
2022/08/03 02:52:36;;;;;;;33.80;32.08;;;;;;;;;;5042355;28;20506;-57
2022/08/03 02:55:04;;;;;;;42.08;39.95;;;;;;;;;;5047422;28;20045;-57
2022/08/03 02:57:32;;;;;;;37.42;35.50;;;;;;;;;;5047875;28;20036;-58
2022/08/03 02:59:59;;;;;;;34.20;32.38;;;;;;;;;;5043511;28;20033;-57
2022/08/03 03:02:25;;;;;;;32.00;30.13;;;;;;;;;;5047414;28;20025;-58
2022/08/03 03:04:52;;;;;;;32.08;30.38;;;;;;;;;;5044977;28;20040;-57
2022/08/03 03:07:18;;;;;;;38.88;36.60;;;;;;;;;;5046497;28;20404;-57
2022/08/03 03:09:44;;;;;;;34.85;32.95;;;;;;;;;;5043860;28;20157;-57
2022/08/03 03:12:11;;;;;;;38.03;36.08;;;;;;;;;;5047782;28;20038;-58
2022/08/03 03:14:38;;;;;;;28.23;26.73;;;;;;;;;;5052137;28;20044;-58
2022/08/03 03:17:05;;;;;;;26.98;25.58;;;;;;;;;;5049280;28;20462;-58
2022/08/03 03:19:32;;;;;;;25.77;24.40;;;;;;;;;;5047768;28;20431;-59
2022/08/03 03:22:00;;;;;;;30.02;28.45;;;;;;;;;;5047585;28;20043;-57
2022/08/03 03:24:27;;;;;;;22.63;21.40;;;;;;;;;;5047722;28;20109;-57
2022/08/03 03:26:53;;;;;;;20.23;19.13;;;;;;;;;;5051200;28;20073;-57
2022/08/03 03:29:19;;;;;;;25.73;24.38;;;;;;;;;;5039484;28;20055;-57
2022/08/03 03:31:45;;;;;;;28.20;26.73;;;;;;;;;;5043704;28;20545;-57
2022/08/03 03:34:11;;;;;;;26.80;25.40;;;;;;;;;;5039695;28;20040;-57
2022/08/03 03:36:36;;;;;;;23.73;22.15;;;;;;;;;;5042490;28;20502;-56
2022/08/03 03:39:02;;;;;;;20.33;19.00;;;;;;;;;;5045358;28;20032;-57
2022/08/03 03:41:28;;;;;;;18.95;17.95;;;;;;;;;;5044431;28;20060;-56
2022/08/03 03:43:54;;;;;;;13.40;12.60;;;;;;;;;;5049699;28;20078;-56
2022/08/03 03:46:19;;;;;;;13.48;12.68;;;;;;;;;;5047601;28;20029;-56
2022/08/03 03:48:45;;;;;;;21.85;20.65;;;;;;;;;;5044930;28;20026;-56
2022/08/03 03:51:10;;;;;;;18.55;17.55;;;;;;;;;;5043205;28;20037;-56
2022/08/03 03:53:36;;;;;;;15.43;14.52;;;;;;;;;;5042156;28;20033;-55
2022/08/03 03:56:01;;;;;;;20.08;18.98;;;;;;;;;;5043378;28;20446;-56
2022/08/03 03:58:27;;;;;;;31.13;29.48;;;;;;;;;;5043645;28;20093;-57
2022/08/03 04:00:52;;;;;;;32.45;30.75;;;;;;;;;;5045222;28;20033;-56
2022/08/03 04:03:18;;;;;;;58.45;55.45;;;;;;;;;;5046074;28;20032;-56
2022/08/03 04:11:24;;;;;;;46.05;43.58;;;;;;;;;;5043974;28;20044;-57
2022/08/03 04:14:08;;;;;;;48.97;46.47;;;;;;;;;;5045466;28;20029;-56
2022/08/03 04:16:37;;;;;;;36.38;34.50;;;;;;;;;;5044439;28;20033;-56
2022/08/03 04:19:23;;;;;;;31.13;29.50;;;;;;;;;;5047035;28;20021;-56
2022/08/03 04:21:51;;;;;;;43.15;40.95;;;;;;;;;;5044974;28;20489;-56
2022/08/03 04:24:19;;;;;;;38.75;36.63;;;;;;;;;;5043579;28;20016;-55
2022/08/03 04:26:46;;;;;;;41.10;39.00;;;;;;;;;;5047396;28;20052;-57
2022/08/03 04:29:13;;;;;;;32.38;30.67;;;;;;;;;;5046284;28;20032;-56
2022/08/03 04:31:39;;;;;;;41.78;39.63;;;;;;;;;;5048319;28;20108;-56
2022/08/03 04:34:06;;;;;;;33.60;31.85;;;;;;;;;;5045779;28;20232;-56
2022/08/03 04:36:35;;;;;;;42.33;40.17;;;;;;;;;;5044232;28;20046;-56
2022/08/03 04:39:09;;;;;;;37.92;35.97;;;;;;;;;;5041454;28;20078;-56
2022/08/03 04:41:35;;;;;;;43.78;41.42;;;;;;;;;;5040323;28;20545;-56
2022/08/03 04:44:01;;;;;;;32.85;31.15;;;;;;;;;;5041176;28;20040;-56
2022/08/03 04:46:33;;;;;;;26.83;25.42;;;;;;;;;;5045250;28;20041;-56
2022/08/03 04:49:00;;;;;;;34.15;32.28;;;;;;;;;;5041271;28;20064;-56
2022/08/03 04:51:25;;;;;;;30.50;28.83;;;;;;;;;;5039204;28;20032;-55
2022/08/03 04:53:51;;;;;;;42.75;40.50;;;;;;;;;;5042126;28;20063;-56
2022/08/03 04:56:16;;;;;;;41.40;39.25;;;;;;;;;;5045900;28;20032;-56
2022/08/03 04:58:41;;;;;;;28.08;26.58;;;;;;;;;;5041862;28;20584;-54
2022/08/03 05:01:07;;;;;;;32.42;30.73;;;;;;;;;;5041398;28;20462;-56
2022/08/03 05:03:32;;;;;;;34.70;32.88;;;;;;;;;;5043702;28;20110;-56
2022/08/03 05:05:58;;;;;;;29.80;28.20;;;;;;;;;;5046190;28;20140;-55
2022/08/03 05:08:23;;;;;;;27.77;26.27;;;;;;;;;;5042817;28;20981;-56
2022/08/03 05:10:48;;;;;;;22.10;17.15;;;;;;;;;;5041067;28;20530;-56
2022/08/03 05:13:14;;;;;;;27.90;26.40;;;;;;;;;;5042650;28;20040;-56
2022/08/03 05:15:40;;;;;;;16.70;15.75;;;;;;;;;;5042257;28;20091;-57
2022/08/03 05:18:05;;;;;;;25.55;24.15;;;;;;;;;;5041453;28;20037;-54
2022/08/03 05:20:31;;;;;;;16.67;15.75;;;;;;;;;;5044405;28;20238;-56
2022/08/03 05:22:58;;;;;;;16.65;15.70;;;;;;;;;;5042855;28;20105;-54
2022/08/03 05:25:23;;;;;;;13.00;12.20;;;;;;;;;;5041161;28;20398;-56
2022/08/03 05:27:48;;;;;;;13.50;12.70;;;;;;;;;;5041347;28;20126;-56
2022/08/03 05:30:15;;;;;;;12.60;11.85;;;;;;;;;;5038682;28;20024;-57
2022/08/03 05:32:40;;;;;;;10.15;9.43;;;;;;;;;;5043140;28;20044;-56
2022/08/03 05:35:06;;;;;;;8.60;8.07;;;;;;;;;;5043891;28;20111;-56
2022/08/03 05:37:31;;;;;;;10.70;10.00;;;;;;;;;;5042069;28;20477;-57
2022/08/03 05:39:57;;;;;;;10.32;9.70;;;;;;;;;;5039391;28;20470;-56
2022/08/03 05:42:25;;;;;;;9.23;8.63;;;;;;;;;;5039853;28;20367;-57
2022/08/03 05:44:50;;;;;;;10.25;9.07;;;;;;;;;;5040631;28;20037;-56
2022/08/03 05:47:16;;;;;;;8.93;8.32;;;;;;;;;;5043926;28;20071;-56
2022/08/03 05:49:41;;;;;;;13.70;12.90;;;;;;;;;;5040245;28;20029;-57
2022/08/03 05:52:06;;;;;;;9.15;8.55;;;;;;;;;;5027327;28;20474;-57
2022/08/03 05:54:32;;;;;;;11.73;11.02;;;;;;;;;;5041681;28;20033;-57
2022/08/03 05:56:57;;;;;;;12.25;11.50;;;;;;;;;;5043477;28;20111;-57
2022/08/03 05:59:24;;;;;;;19.98;18.88;;;;;;;;;;5035678;28;20029;-57
2022/08/03 06:01:49;;;;;;;20.48;19.35;;;;;;;;;;5047550;28;20127;-56
2022/08/03 06:04:15;;;;;;;26.95;25.55;;;;;;;;;;5046158;28;20147;-56
2022/08/03 06:06:40;;;;;;;34.53;32.72;;;;;;;;;;5043916;28;20036;-57
2022/08/03 06:09:06;;;;;;;35.75;33.95;;;;;;;;;;5045249;28;20041;-57
2022/08/03 06:11:31;;;;;;;42.45;40.25;;;;;;;;;;5044413;28;20061;-57
2022/08/03 06:13:56;;;;;;;34.55;32.65;;;;;;;;;;5043852;28;20082;-57
2022/08/03 06:16:22;;;;;;;28.90;27.40;;;;;;;;;;5043214;28;20160;-57
2022/08/03 06:18:47;;;;;;;41.28;39.17;;;;;;;;;;5045581;28;20163;-58
2022/08/03 06:21:12;;;;;;;28.05;26.58;;;;;;;;;;5045244;28;20109;-56
2022/08/03 06:23:38;;;;;;;43.60;41.33;;;;;;;;;;5040118;28;20416;-55
2022/08/03 06:26:03;;;;;;;38.17;36.08;;;;;;;;;;5038917;28;20017;-55
2022/08/03 06:28:29;;;;;;;30.05;28.45;;;;;;;;;;5042969;28;20040;-57
2022/08/03 06:30:54;;;;;;;19.17;18.08;;;;;;;;;;5043357;28;20036;-57
2022/08/03 06:33:19;;;;;;;24.95;23.58;;;;;;;;;;5047721;28;20033;-57
2022/08/03 06:35:45;;;;;;;13.60;12.80;;;;;;;;;;5045865;28;20123;-56
2022/08/03 06:38:10;;;;;;;21.98;20.75;;;;;;;;;;5041975;28;20044;-57
2022/08/03 06:40:38;;;;;;;12.90;12.13;;;;;;;;;;5047150;28;20392;-56
2022/08/03 06:43:05;;;;;;;11.48;10.77;;;;;;;;;;5041468;28;20032;-56
2022/08/03 06:45:32;;;;;;;14.25;13.45;;;;;;;;;;5060573;28;20117;-58
2022/08/03 06:48:08;;;;;;;19.40;18.30;;;;;;;;;;5041032;28;20061;-57
2022/08/03 06:50:36;;;;;;;18.02;16.95;;;;;;;;;;5041407;28;20033;-57
2022/08/03 06:53:03;;;;;;;24.08;22.77;;;;;;;;;;5040836;28;20039;-57
2022/08/03 06:55:29;;;;;;;25.75;24.35;;;;;;;;;;5048542;28;20175;-57
2022/08/03 06:57:54;;;;;;;29.48;27.77;;;;;;;;;;5050060;28;20291;-57
2022/08/03 07:00:20;;;;;;;25.75;24.30;;;;;;;;;;5044315;28;20068;-57
2022/08/03 07:02:46;;;;;;;27.13;25.65;;;;;;;;;;5047463;28;20478;-58
2022/08/03 07:05:12;;;;;;;30.48;28.88;;;;;;;;;;5047310;28;20036;-57
2022/08/03 07:07:37;;;;;;;32.60;30.88;;;;;;;;;;5042613;28;20037;-57
2022/08/03 07:10:04;;;;;;;28.58;27.08;;;;;;;;;;5045809;28;20039;-57
2022/08/03 07:12:31;;;;;;;40.88;38.78;;;;;;;;;;5047823;28;20106;-57
2022/08/03 07:14:57;;;;;;;49.20;46.65;;;;;;;;;;5047557;28;20021;-57
2022/08/03 07:17:22;;;;;;;47.17;44.78;;;;;;;;;;5044892;28;20037;-57
2022/08/03 07:19:48;;;;;;;53.75;51.05;;;;;;;;;;5046001;28;20031;-57
2022/08/03 07:22:13;;;;;;;52.22;49.40;;;;;;;;;;5048246;28;20120;-55
2022/08/03 07:24:40;;;;;;;46.83;44.42;;;;;;;;;;5048037;28;20119;-56
2022/08/03 07:27:06;;;;;;;49.65;47.15;;;;;;;;;;5042840;28;20036;-56
2022/08/03 07:29:31;;;;;;;51.55;48.95;;;;;;;;;;5043069;28;20025;-55
2022/08/03 07:31:56;;;;;;;51.33;48.72;;;;;;;;;;5044407;28;20036;-57
2022/08/03 07:34:22;;;;;;;48.78;46.25;;;;;;;;;;5044322;28;20025;-56
2022/08/03 07:36:47;;;;;;;34.70;32.90;;;;;;;;;;5044248;28;20095;-57
2022/08/03 07:39:12;;;;;;;31.05;29.45;;;;;;;;;;5043119;28;20040;-56
2022/08/03 07:41:38;;;;;;;33.15;31.45;;;;;;;;;;5044315;28;20037;-56
2022/08/03 07:44:03;;;;;;;45.47;43.17;;;;;;;;;;5042702;28;20267;-57
2022/08/03 07:46:29;;;;;;;42.10;39.72;;;;;;;;;;5044257;28;20072;-57
2022/08/03 07:48:54;;;;;;;55.03;52.22;;;;;;;;;;5038433;28;20025;-57
2022/08/03 07:51:20;;;;;;;64.93;61.67;;;;;;;;;;5037480;28;20037;-57
2022/08/03 07:53:45;;;;;;;58.00;55.10;;;;;;;;;;5046913;28;20087;-57
2022/08/03 07:56:10;;;;;;;84.60;80.43;;;;;;;;;;5046130;28;20055;-56
2022/08/03 07:58:36;;;;;;;89.57;85.18;;;;;;;;;;5046586;28;20036;-56
2022/08/03 08:01:01;;;;;;;75.57;71.80;;;;;;;;;;5042588;28;20033;-57
2022/08/03 08:03:27;;;;;;;97.43;92.65;;;;;;;;;;5044782;28;20118;-56
2022/08/03 08:05:52;;;;;;;117.13;111.35;;;;;;;;;;5041875;28;20025;-57
2022/08/03 08:08:19;;;;;;;118.40;112.57;;;;;;;;;;5043929;28;20340;-56
2022/08/03 08:10:44;;;;;;;105.65;100.50;;;;;;;;;;5046051;28;20121;-56
2022/08/03 08:13:10;;;;;;;125.60;119.35;;;;;;;;;;5042675;28;20124;-56
2022/08/03 08:15:35;;;;;;;118.95;113.10;;;;;;;;;;5040498;28;20362;-57
2022/08/03 08:18:01;;;;;;;118.10;112.30;;;;;;;;;;5042596;28;20029;-57
2022/08/03 08:20:32;;;;;;;107.22;102.00;;;;;;;;;;5024590;28;20033;-57
2022/08/03 08:23:03;;;;;;;97.38;92.57;;;;;;;;;;5040284;28;20115;-57
2022/08/03 08:25:30;;;;;;;101.47;96.47;;;;;;;;;;5042932;28;20017;-56
2022/08/03 08:27:56;;;;;;;90.65;86.15;;;;;;;;;;5044205;28;20115;-56
2022/08/03 08:30:22;;;;;;;103.55;98.47;;;;;;;;;;5044182;28;20124;-56
2022/08/03 08:32:48;;;;;;;105.10;99.95;;;;;;;;;;5044444;28;20056;-57
2022/08/03 08:35:15;;;;;;;107.80;102.50;;;;;;;;;;5043398;28;20463;-57
2022/08/03 08:37:42;;;;;;;132.00;125.50;;;;;;;;;;5044233;28;20060;-57
2022/08/03 08:40:08;;;;;;;127.43;121.13;;;;;;;;;;5039577;28;20075;-57
2022/08/03 08:42:35;;;;;;;128.07;121.78;;;;;;;;;;5040483;28;20025;-57
2022/08/03 08:45:01;;;;;;;126.43;120.22;;;;;;;;;;5036039;28;20044;-57
2022/08/03 08:47:29;;;;;;;142.77;135.75;;;;;;;;;;5039092;28;20459;-56
2022/08/03 08:49:56;;;;;;;125.75;119.55;;;;;;;;;;5043196;28;20033;-57
2022/08/03 08:52:25;;;;;;;146.48;139.27;;;;;;;;;;5042986;28;20538;-57
2022/08/03 08:55:13;;;;;;;145.60;138.40;;;;;;;;;;5040934;28;20032;-57
2022/08/03 08:57:48;;;;;;;149.60;142.20;;;;;;;;;;5039353;28;20410;-57
2022/08/03 09:00:14;;;;;;;146.90;139.70;;;;;;;;;;5045606;28;20036;-57
2022/08/03 09:02:43;;;;;;;144.20;137.10;;;;;;;;;;5041177;28;20519;-57
2022/08/03 09:05:31;;;;;;;155.48;147.80;;;;;;;;;;5048252;28;20032;-57
2022/08/03 09:07:57;;;;;;;169.45;161.13;;;;;;;;;;5046904;28;20116;-57
2022/08/03 09:10:23;;;;;;;158.23;150.43;;;;;;;;;;5040735;28;20492;-57
2022/08/03 09:12:50;;;;;;;159.57;151.70;;;;;;;;;;5049242;28;20235;-57
2022/08/03 09:15:20;;;;;;;196.73;187.13;;;;;;;;;;5049508;28;20462;-57
2022/08/03 09:17:46;;;;;;;158.20;150.38;;;;;;;;;;5051459;28;20036;-57
2022/08/03 09:20:12;;;;;;;177.10;168.43;;;;;;;;;;5041998;28;20071;-57
2022/08/03 09:23:01;;;;;;;156.55;148.80;;;;;;;;;;5041277;28;20445;-56
2022/08/03 09:25:35;;;;;;;172.93;164.43;;;;;;;;;;5043255;28;20033;-57
2022/08/03 09:28:04;;;;;;;168.93;160.63;;;;;;;;;;5035895;28;20454;-57
2022/08/03 09:30:30;;;;;;;176.27;167.55;;;;;;;;;;5040458;28;20048;-57
2022/08/03 09:33:07;;;;;;;203.43;193.40;;;;;;;;;;5047989;28;20134;-57
2022/08/03 09:35:38;;;;;;;168.85;160.55;;;;;;;;;;5042503;28;20060;-57
2022/08/03 09:38:15;;;;;;;174.07;165.50;;;;;;;;;;5040902;28;20503;-56
2022/08/03 09:40:42;;;;;;;176.95;168.25;;;;;;;;;;5049125;28;20726;-57
2022/08/03 09:43:08;;;;;;;181.82;172.93;;;;;;;;;;5042523;28;20055;-56
2022/08/03 09:45:38;;;;;;;177.80;169.07;;;;;;;;;;5041418;28;20043;-57
2022/08/03 09:48:30;;;;;;;;;;;;;;;;;;5043672;28;20335;-57
2022/08/03 09:50:59;;;;;;;146.40;139.20;;;;;;;;;;5041052;28;20586;-57
2022/08/03 09:53:25;;;;;;;175.30;166.65;;;;;;;;;;5041374;28;20029;-57
2022/08/03 09:55:55;;;;;;;138.32;131.52;;;;;;;;;;5039835;28;20037;-57
2022/08/03 09:58:21;;;;;;;215.88;205.35;;;;;;;;;;5035106;28;20033;-57
2022/08/03 10:00:57;;;;;;;182.43;173.45;;;;;;;;;;5041613;28;20608;-57
2022/08/03 10:03:24;;;;;;;160.23;152.32;;;;;;;;;;5039231;28;20033;-57
2022/08/03 10:05:50;;;;;;;167.73;159.43;;;;;;;;;;5041883;28;20033;-56
2022/08/03 10:08:17;;;;;;;181.70;172.75;;;;;;;;;;5044408;28;20036;-57
2022/08/03 10:10:45;;;;;;;166.80;158.57;;;;;;;;;;5040412;28;20099;-57
2022/08/03 10:13:12;;;;;;;99.63;94.70;;;;;;;;;;5040293;28;20036;-56
2022/08/03 10:15:39;;;;;;;104.60;99.43;;;;;;;;;;5041706;28;20041;-57
2022/08/03 10:18:04;;;;;;;109.43;104.03;;;;;;;;;;5040678;28;20048;-57
2022/08/03 10:20:35;;;;;;;169.00;160.70;;;;;;;;;;5044083;28;20044;-56
2022/08/03 10:23:01;;;;;;;91.20;86.68;;;;;;;;;;5040240;28;20106;-56
2022/08/03 10:25:29;;;;;;;86.90;82.57;;;;;;;;;;5039167;28;20100;-57
2022/08/03 10:27:56;;;;;;;93.65;89.05;;;;;;;;;;5038224;28;20024;-57
2022/08/03 10:30:22;;;;;;;44.83;42.53;;;;;;;;;;5036422;28;20036;-56
2022/08/03 10:32:57;;;;;;;62.67;59.50;;;;;;;;;;5037703;28;20554;-57
2022/08/03 10:35:24;;;;;;;50.40;47.90;;;;;;;;;;5041104;28;20029;-57
2022/08/03 10:38:02;;;;;;;48.88;46.38;;;;;;;;;;5038822;28;20030;-57
2022/08/03 10:40:30;;;;;;;81.20;77.20;;;;;;;;;;5040948;28;20553;-58
2022/08/03 10:43:02;;;;;;;47.22;44.83;;;;;;;;;;5040563;28;20072;-57
2022/08/03 10:45:32;;;;;;;46.72;44.22;;;;;;;;;;5040011;28;20029;-57
2022/08/03 10:47:59;;;;;;;43.45;41.25;;;;;;;;;;5043228;28;20040;-57
2022/08/03 10:50:24;;;;;;;44.13;41.83;;;;;;;;;;5043180;28;20032;-57
2022/08/03 10:52:59;;;;;;;49.83;47.30;;;;;;;;;;5043738;28;20430;-57
2022/08/03 10:58:37;;;;;;;42.15;40.03;;;;;;;;;;5048095;28;20033;-57
2022/08/03 11:01:07;;;;;;;33.15;31.42;;;;;;;;;;5045610;28;20029;-57
2022/08/03 11:03:33;;;;;;;53.15;50.45;;;;;;;;;;5043963;28;20032;-56
2022/08/03 11:06:17;;;;;;;33.63;31.83;;;;;;;;;;5042569;28;20041;-57
2022/08/03 11:08:43;;;;;;;31.63;30.02;;;;;;;;;;5046038;28;20420;-57
2022/08/03 11:11:18;;;;;;;31.13;29.52;;;;;;;;;;5043227;28;20017;-57
2022/08/03 11:14:07;;;;;;;41.00;38.90;;;;;;;;;;5044298;28;20049;-57
2022/08/03 11:16:45;;;;;;;26.33;24.92;;;;;;;;;;5046702;28;20052;-57
2022/08/03 11:19:16;;;;;;;26.60;25.20;;;;;;;;;;5044237;28;20482;-57
2022/08/03 11:21:47;;;;;;;26.67;25.27;;;;;;;;;;5046594;28;20468;-57
2022/08/03 11:24:46;;;;;;;28.55;27.05;;;;;;;;;;5041648;28;20474;-57
2022/08/03 11:27:17;;;;;;;28.38;26.88;;;;;;;;;;5045562;28;20043;-58
2022/08/03 11:30:00;;;;;;;26.90;25.50;;;;;;;;;;5045236;28;20437;-57
2022/08/03 11:32:38;;;;;;;35.65;33.75;;;;;;;;;;5045745;28;20094;-57
2022/08/03 11:35:12;;;;;;;34.17;32.40;;;;;;;;;;5041644;28;20083;-57
2022/08/03 11:37:52;;;;;;;31.42;29.83;;;;;;;;;;5041265;28;20668;-58
2022/08/03 11:40:36;;;;;;;40.63;38.53;;;;;;;;;;5045320;28;20146;-58
2022/08/03 11:43:03;;;;;;;26.85;25.45;;;;;;;;;;5049062;28;20086;-57
2022/08/03 11:45:30;;;;;;;25.75;24.38;;;;;;;;;;5040781;28;20032;-57
2022/08/03 11:47:57;;;;;;;42.67;40.47;;;;;;;;;;5047042;28;20086;-58
2022/08/03 11:50:23;;;;;;;23.40;22.13;;;;;;;;;;5043368;28;20082;-57
2022/08/03 11:52:49;;;;;;;35.60;33.80;;;;;;;;;;5044565;28;20088;-57
2022/08/03 11:55:19;;;;;;;39.97;37.92;;;;;;;;;;5041327;28;20483;-57
2022/08/03 11:57:45;;;;;;;;;;;;;;;;;;5045973;28;20032;-57
2022/08/03 12:00:20;;;;;;;44.85;42.58;;;;;;;;;;5044000;28;20012;-57
2022/08/03 12:03:06;;;;;;;35.17;33.38;;;;;;;;;;5045985;28;20207;-56
2022/08/03 12:05:51;;;;;;;26.75;25.35;;;;;;;;;;5042326;28;20029;-57
2022/08/03 12:08:37;;;;;;;32.50;30.83;;;;;;;;;;5043337;28;20037;-55
2022/08/03 12:11:07;;;;;;;34.83;33.03;;;;;;;;;;5041616;28;20537;-56
2022/08/03 12:13:43;;;;;;;26.25;24.85;;;;;;;;;;5044324;28;20131;-54
2022/08/03 12:16:09;;;;;;;43.70;41.50;;;;;;;;;;5045231;28;20041;-56
2022/08/03 12:18:35;;;;;;;32.00;30.35;;;;;;;;;;5041360;28;20088;-55
2022/08/03 12:21:06;;;;;;;35.60;33.70;;;;;;;;;;5042179;28;20079;-54
2022/08/03 12:23:32;;;;;;;33.60;31.83;;;;;;;;;;5043299;28;20099;-56
2022/08/03 12:26:03;;;;;;;55.15;52.35;;;;;;;;;;5043962;28;20033;-56
2022/08/03 12:28:29;;;;;;;51.40;48.80;;;;;;;;;;5046651;28;20101;-54
2022/08/03 12:30:54;;;;;;;39.38;37.38;;;;;;;;;;5045176;28;20120;-56
2022/08/03 12:33:25;;;;;;;54.50;51.78;;;;;;;;;;5043733;28;20447;-56
2022/08/03 12:36:08;;;;;;;41.15;39.08;;;;;;;;;;5041704;28;20036;-56
2022/08/03 12:38:38;;;;;;;62.97;59.72;;;;;;;;;;5042740;28;20037;-53
2022/08/03 12:41:12;;;;;;;43.25;41.03;;;;;;;;;;5043838;28;20178;-55
2022/08/03 12:43:50;;;;;;;51.38;48.78;;;;;;;;;;5040140;28;20033;-55
2022/08/03 12:46:17;;;;;;;45.58;43.25;;;;;;;;;;5041765;28;20039;-56
2022/08/03 12:49:02;;;;;;;47.53;45.13;;;;;;;;;;5043842;28;20207;-56
2022/08/03 12:51:34;;;;;;;51.13;48.53;;;;;;;;;;5043980;28;20844;-56
2022/08/03 12:53:59;;;;;;;35.78;33.90;;;;;;;;;;5043499;28;20029;-56
2022/08/03 12:56:25;;;;;;;39.92;37.88;;;;;;;;;;5044737;28;20106;-55
2022/08/03 12:58:51;;;;;;;52.50;49.85;;;;;;;;;;5042808;28;20427;-55
2022/08/03 13:01:18;;;;;;;62.15;59.05;;;;;;;;;;5040604;28;20515;-56
2022/08/03 13:03:48;;;;;;;58.92;55.97;;;;;;;;;;5040468;28;20037;-55
2022/08/03 13:06:15;;;;;;;71.57;68.05;;;;;;;;;;5044566;28;20446;-56
2022/08/03 13:08:41;;;;;;;54.25;51.50;;;;;;;;;;5043282;28;20510;-56
2022/08/03 13:11:26;;;;;;;56.67;53.78;;;;;;;;;;5037508;28;20099;-56
2022/08/03 13:13:53;;;;;;;31.40;29.80;;;;;;;;;;5037244;28;20325;-55
2022/08/03 13:16:20;;;;;;;57.35;54.50;;;;;;;;;;5044613;28;20132;-56
2022/08/03 13:18:46;;;;;;;65.50;62.22;;;;;;;;;;5041165;28;20079;-56
2022/08/03 13:21:16;;;;;;;62.88;59.67;;;;;;;;;;5037932;28;20029;-56
2022/08/03 13:23:42;;;;;;;42.20;40.05;;;;;;;;;;5041464;28;20584;-56
2022/08/03 13:26:08;;;;;;;74.05;70.38;;;;;;;;;;5042269;28;20072;-56
2022/08/03 13:28:34;;;;;;;70.65;67.15;;;;;;;;;;5040639;28;20474;-57
2022/08/03 13:30:59;;;;;;;88.00;83.63;;;;;;;;;;5043957;28;20047;-57
2022/08/03 13:33:26;;;;;;;62.33;59.22;;;;;;;;;;5044200;28;20037;-57
2022/08/03 13:35:52;;;;;;;87.30;82.95;;;;;;;;;;5039991;28;20036;-56
2022/08/03 13:38:17;;;;;;;86.75;82.47;;;;;;;;;;5039917;28;20029;-56
2022/08/03 13:40:42;;;;;;;81.13;77.13;;;;;;;;;;5039367;28;20430;-56
2022/08/03 13:43:08;;;;;;;84.47;80.28;;;;;;;;;;5041827;28;20029;-56
2022/08/03 13:45:34;;;;;;;76.60;72.80;;;;;;;;;;5040217;28;20059;-56
2022/08/03 13:48:00;;;;;;;60.70;57.65;;;;;;;;;;5040827;28;20546;-56
2022/08/03 13:50:26;;;;;;;59.65;56.65;;;;;;;;;;5041727;28;20128;-56
2022/08/03 13:52:51;;;;;;;59.10;56.10;;;;;;;;;;5042853;28;20029;-57
2022/08/03 13:55:16;;;;;;;28.65;27.15;;;;;;;;;;5044925;28;20060;-57
2022/08/03 13:57:42;;;;;;;72.53;68.95;;;;;;;;;;5043242;28;20040;-57
2022/08/03 14:00:08;;;;;;;78.65;74.72;;;;;;;;;;5041588;28;20295;-57
2022/08/03 14:02:33;;;;;;;92.90;88.32;;;;;;;;;;5042400;28;20049;-57
2022/08/03 14:04:58;;;;;;;90.57;86.13;;;;;;;;;;5040417;28;20104;-57
2022/08/03 14:07:24;;;;;;;65.55;62.30;;;;;;;;;;5045700;28;20052;-57
2022/08/03 14:09:49;;;;;;;77.15;73.35;;;;;;;;;;5043770;28;20022;-57
2022/08/03 14:12:14;;;;;;;88.40;84.05;;;;;;;;;;5041950;28;20136;-56
2022/08/03 14:14:40;;;;;;;57.05;54.20;;;;;;;;;;5041978;28;20075;-57
2022/08/03 14:17:06;;;;;;;47.08;44.72;;;;;;;;;;5041112;28;20021;-57
2022/08/03 14:19:31;;;;;;;53.47;50.75;;;;;;;;;;5041627;28;20434;-58
2022/08/03 14:21:57;;;;;;;79.05;75.13;;;;;;;;;;5025915;28;20026;-57
2022/08/03 14:24:22;;;;;;;53.00;50.33;;;;;;;;;;5050503;28;20059;-58
2022/08/03 14:26:47;;;;;;;78.53;74.65;;;;;;;;;;5048312;28;20454;-58
2022/08/03 14:29:13;;;;;;;102.05;97.05;;;;;;;;;;5045587;28;20033;-58